Time;durP1;ratioP1;P1;durP2;ratioP2;P2;SDS_P1;SDS_P2;PMS_P1;PMS_P2;Temp;Humidity;BMP_temperature;BMP_pressure;BME280_temperature;BME280_humidity;BME280_pressure;Samples;Min_cycle;Max_cycle;Signal;HPM_P1;HPM_P2
2024/04/03 00:05:28;;;;;;;16.25;7.20;;;8.40;99.90;;;;;;12603561;28;20048;-35
2024/04/03 00:11:29;;;;;;;12.68;6.30;;;8.40;99.90;;;;;;12612569;28;20058;-35
2024/04/03 00:17:30;;;;;;;12.38;5.57;;;8.50;99.90;;;;;;12604597;28;20052;-35
2024/04/03 00:23:31;;;;;;;21.15;5.95;;;8.50;99.90;;;;;;12611606;28;20754;-35
2024/04/03 00:29:32;;;;;;;15.82;5.70;;;8.60;99.90;;;;;;12600494;28;20068;-35
2024/04/03 00:35:33;;;;;;;19.00;6.35;;;8.70;99.90;;;;;;12606021;28;20045;-36
2024/04/03 00:41:34;;;;;;;21.55;6.10;;;8.70;99.90;;;;;;12611141;28;20102;-35
2024/04/03 00:47:35;;;;;;;13.35;5.68;;;8.70;99.90;;;;;;12613315;28;20044;-35
2024/04/03 00:53:37;;;;;;;21.05;6.32;;;8.60;99.90;;;;;;12620931;28;20048;-35
2024/04/03 00:59:39;;;;;;;15.40;6.38;;;8.60;99.90;;;;;;12614490;28;20613;-35
2024/04/03 01:05:40;;;;;;;19.58;7.28;;;8.60;99.90;;;;;;12609227;28;20048;-35
2024/04/03 01:11:41;;;;;;;20.08;7.25;;;8.60;99.90;;;;;;12609694;28;20053;-35
2024/04/03 01:17:42;;;;;;;19.35;7.22;;;8.60;99.90;;;;;;12609225;28;20798;-35
2024/04/03 01:23:42;;;;;;;16.92;7.07;;;8.60;99.90;;;;;;12593409;28;20060;-35
2024/04/03 01:29:43;;;;;;;13.07;6.70;;;8.50;99.90;;;;;;12606324;28;20095;-35
2024/04/03 01:35:44;;;;;;;13.52;6.65;;;8.50;99.90;;;;;;12612254;28;20036;-35
2024/04/03 01:41:45;;;;;;;16.00;5.45;;;8.50;99.90;;;;;;12594396;28;20416;-35
2024/04/03 01:47:47;;;;;;;12.77;5.80;;;8.60;99.90;;;;;;12600282;28;20445;-36
2024/04/03 01:53:48;;;;;;;15.00;5.80;;;8.60;99.90;;;;;;12598710;28;20424;-36
2024/04/03 01:59:49;;;;;;;14.68;5.57;;;8.70;99.90;;;;;;12614059;28;20499;-35
2024/04/03 02:05:50;;;;;;;11.20;5.20;;;8.70;99.90;;;;;;12611391;28;20072;-35
2024/04/03 02:11:50;;;;;;;13.10;4.65;;;8.80;99.90;;;;;;12626466;28;20047;-35
2024/04/03 02:17:51;;;;;;;19.88;4.70;;;8.70;99.90;;;;;;12621133;28;20135;-35
2024/04/03 02:23:52;;;;;;;17.75;4.85;;;8.80;99.90;;;;;;12603015;28;20052;-35
2024/04/03 02:29:53;;;;;;;10.73;4.75;;;8.80;99.90;;;;;;12613432;28;20055;-36
2024/04/03 02:35:54;;;;;;;9.70;4.28;;;8.80;99.90;;;;;;12601880;28;20084;-36
2024/04/03 02:41:55;;;;;;;9.05;4.05;;;8.80;99.90;;;;;;12588363;28;20119;-35
2024/04/03 02:47:57;;;;;;;11.18;4.25;;;8.70;99.90;;;;;;12601106;28;20052;-35
2024/04/03 02:53:58;;;;;;;13.85;4.93;;;8.60;99.90;;;;;;12609728;28;20056;-36
2024/04/03 02:59:59;;;;;;;13.55;4.78;;;8.70;99.90;;;;;;12595111;28;20053;-35
2024/04/03 03:06:02;;;;;;;10.32;4.35;;;8.60;99.90;;;;;;12600610;28;20044;-35
2024/04/03 03:12:04;;;;;;;14.38;4.75;;;8.60;99.90;;;;;;12611332;28;20393;-35
2024/04/03 03:18:05;;;;;;;12.13;5.40;;;8.60;99.90;;;;;;12627346;28;20048;-35
2024/04/03 03:24:07;;;;;;;14.40;6.65;;;8.60;99.90;;;;;;12586146;28;20056;-35
2024/04/03 03:30:08;;;;;;;15.35;8.30;;;8.60;99.90;;;;;;12612352;28;20051;-35
2024/04/03 03:36:09;;;;;;;16.70;8.73;;;8.60;99.90;;;;;;12612785;28;20040;-35
2024/04/03 03:42:10;;;;;;;18.08;11.00;;;8.60;99.90;;;;;;12600979;28;20044;-35
2024/04/03 03:48:11;;;;;;;24.42;12.52;;;8.50;99.90;;;;;;12604964;28;20106;-35
2024/04/03 03:54:14;;;;;;;26.63;13.90;;;8.50;99.90;;;;;;12605084;28;20051;-35
2024/04/03 04:00:16;;;;;;;24.83;14.98;;;8.50;99.90;;;;;;12596553;28;20048;-35
2024/04/03 04:06:17;;;;;;;20.75;15.00;;;8.50;99.90;;;;;;12592009;28;20067;-35
2024/04/03 04:12:19;;;;;;;22.98;15.07;;;8.50;99.90;;;;;;12612064;28;20139;-36
2024/04/03 04:18:20;;;;;;;25.30;16.55;;;8.50;99.90;;;;;;12586979;28;20056;-36
2024/04/03 04:24:22;;;;;;;27.00;17.45;;;8.50;99.90;;;;;;12617416;28;20055;-35
2024/04/03 04:30:23;;;;;;;22.67;16.75;;;8.60;99.90;;;;;;12616160;28;20044;-35
2024/04/03 04:36:24;;;;;;;27.10;17.55;;;8.60;99.90;;;;;;12614817;28;20060;-35
2024/04/03 04:42:25;;;;;;;22.63;17.38;;;8.60;99.90;;;;;;12601926;28;20048;-35
2024/04/03 04:48:27;;;;;;;23.58;18.02;;;8.70;99.90;;;;;;12602352;28;20085;-35
2024/04/03 04:54:28;;;;;;;26.83;20.23;;;8.70;99.90;;;;;;12604107;28;20048;-35
2024/04/03 05:00:29;;;;;;;26.25;20.15;;;8.70;99.90;;;;;;12612880;28;20048;-35
2024/04/03 05:06:30;;;;;;;28.33;21.17;;;8.70;99.90;;;;;;12603411;28;20608;-35
2024/04/03 05:12:31;;;;;;;29.95;20.73;;;8.80;99.90;;;;;;12590260;28;20061;-36
2024/04/03 05:18:32;;;;;;;29.23;21.13;;;8.80;99.90;;;;;;12605911;28;20052;-35
2024/04/03 05:24:33;;;;;;;35.75;23.90;;;8.80;99.90;;;;;;12618958;28;20059;-35
2024/04/03 05:30:37;;;;;;;33.58;21.67;;;8.80;99.90;;;;;;12595381;28;20046;-36
2024/04/03 05:36:38;;;;;;;30.02;21.23;;;8.80;99.90;;;;;;12594035;28;20044;-35
2024/04/03 05:42:39;;;;;;;29.48;20.55;;;8.90;99.90;;;;;;12617366;28;20076;-35
2024/04/03 05:48:40;;;;;;;27.90;20.45;;;8.90;99.90;;;;;;12610555;28;20113;-35
2024/04/03 05:54:41;;;;;;;27.85;20.83;;;9.00;99.90;;;;;;12599549;28;20056;-35
2024/04/03 06:00:42;;;;;;;29.70;20.83;;;9.00;99.90;;;;;;12609235;28;20048;-35
2024/04/03 06:06:43;;;;;;;33.13;23.23;;;9.00;99.90;;;;;;12620126;28;20480;-35
2024/04/03 06:12:44;;;;;;;30.30;27.08;;;9.00;99.90;;;;;;12629529;28;20058;-36
2024/04/03 06:18:45;;;;;;;35.78;29.20;;;9.10;99.90;;;;;;12608696;28;20051;-35
2024/04/03 06:24:45;;;;;;;32.78;28.45;;;9.10;99.90;;;;;;12618016;28;20079;-35
2024/04/03 06:30:46;;;;;;;31.58;28.35;;;9.20;99.90;;;;;;12610051;28;20566;-36
2024/04/03 06:36:47;;;;;;;31.52;28.20;;;9.40;99.90;;;;;;12625703;28;20112;-35
2024/04/03 06:42:49;;;;;;;33.58;30.30;;;9.50;99.90;;;;;;12597071;28;20067;-35
2024/04/03 06:48:50;;;;;;;35.35;32.05;;;9.50;99.90;;;;;;12620341;28;20044;-35
2024/04/03 06:54:52;;;;;;;36.60;33.40;;;9.50;99.90;;;;;;12596720;28;20037;-35
2024/04/03 07:00:54;;;;;;;34.65;31.73;;;9.50;99.90;;;;;;12606950;28;20060;-36
2024/04/03 07:06:56;;;;;;;32.67;29.98;;;9.60;99.90;;;;;;12608223;28;20048;-36
2024/04/03 07:13:00;;;;;;;33.45;30.75;;;9.70;99.90;;;;;;12592141;28;20044;-36
2024/04/03 07:19:01;;;;;;;34.72;32.22;;;9.80;99.90;;;;;;12597055;28;20060;-35
2024/04/03 07:25:03;;;;;;;35.75;32.97;;;10.00;99.90;;;;;;12606527;28;20056;-35
2024/04/03 07:31:04;;;;;;;38.40;35.60;;;10.20;99.90;;;;;;12608985;28;20146;-36
2024/04/03 07:37:05;;;;;;;41.38;38.47;;;10.20;99.90;;;;;;12605378;28;20141;-35
2024/04/03 07:43:06;;;;;;;40.60;37.75;;;10.20;99.90;;;;;;12592019;28;20051;-35
2024/04/03 07:49:07;;;;;;;40.42;37.38;;;10.30;99.90;;;;;;12609011;28;20500;-35
2024/04/03 07:55:13;;;;;;;40.90;38.40;;;10.30;99.90;;;;;;12613163;28;20044;-35
2024/04/03 08:01:14;;;;;;;36.75;34.25;;;10.20;99.90;;;;;;12568624;28;20113;-36
2024/04/03 08:07:15;;;;;;;37.67;35.42;;;10.30;99.90;;;;;;12590230;28;20462;-35
2024/04/03 08:13:15;;;;;;;40.78;38.05;;;10.30;99.90;;;;;;12602712;28;20082;-36
2024/04/03 08:19:16;;;;;;;38.40;36.03;;;10.20;99.90;;;;;;12621688;28;20135;-36
2024/04/03 08:25:17;;;;;;;18.55;17.15;;;10.30;99.90;;;;;;12593879;28;20068;-35
2024/04/03 08:31:18;;;;;;;18.50;17.17;;;10.20;99.90;;;;;;12597620;28;20088;-36
2024/04/03 08:37:20;;;;;;;16.42;15.23;;;10.20;99.90;;;;;;12605733;28;20059;-35
2024/04/03 08:43:22;;;;;;;20.48;19.13;;;10.20;99.90;;;;;;12600427;28;20052;-35
2024/04/03 08:49:28;;;;;;;22.15;20.75;;;10.20;99.90;;;;;;12606558;28;20447;-37
2024/04/03 08:55:29;;;;;;;16.60;15.20;;;10.20;99.90;;;;;;12588992;28;20059;-36
2024/04/03 09:01:31;;;;;;;13.13;11.73;;;10.20;99.90;;;;;;12596230;28;20125;-36
2024/04/03 09:07:32;;;;;;;13.20;12.18;;;10.20;99.90;;;;;;12604457;28;20052;-36
2024/04/03 09:13:33;;;;;;;14.93;13.82;;;10.40;99.90;;;;;;12603923;28;20123;-36
2024/04/03 09:19:34;;;;;;;14.40;13.27;;;10.50;99.90;;;;;;12615843;28;20048;-35
2024/04/03 09:25:37;;;;;;;13.07;12.10;;;10.60;99.90;;;;;;12620532;28;20109;-35
2024/04/03 09:31:38;;;;;;;13.32;12.48;;;10.50;99.90;;;;;;12612824;28;20079;-35
2024/04/03 09:37:38;;;;;;;12.27;11.15;;;10.60;99.90;;;;;;12621148;28;20448;-36
2024/04/03 09:43:43;;;;;;;12.70;11.70;;;10.50;99.90;;;;;;12611169;28;20560;-36
2024/04/03 09:49:50;;;;;;;14.70;13.50;;;10.60;99.90;;;;;;12614498;28;20439;-37
2024/04/03 09:55:52;;;;;;;14.93;14.02;;;10.80;99.90;;;;;;12613594;28;20040;-35
2024/04/03 10:01:54;;;;;;;17.40;16.25;;;11.00;99.90;;;;;;12598434;28;21043;-35
2024/04/03 10:08:03;;;;;;;21.30;19.70;;;11.20;99.90;;;;;;12624063;28;20051;-36
2024/04/03 10:14:05;;;;;;;21.10;19.80;;;11.20;99.90;;;;;;12611175;28;20036;-36
2024/04/03 10:20:06;;;;;;;19.95;18.63;;;11.10;99.90;;;;;;12607525;28;20044;-36
2024/04/03 10:26:08;;;;;;;24.95;23.35;;;11.20;99.90;;;;;;12607473;28;20048;-36
2024/04/03 10:32:14;;;;;;;20.17;18.73;;;11.40;99.90;;;;;;12598040;28;20044;-36
2024/04/03 10:38:15;;;;;;;19.70;18.30;;;11.40;99.90;;;;;;12617974;28;20047;-36
2024/04/03 10:44:16;;;;;;;26.10;24.42;;;11.40;99.90;;;;;;12603541;28;20048;-35
2024/04/03 10:50:17;;;;;;;29.48;27.75;;;11.60;99.90;;;;;;12616201;28;20048;-36
2024/04/03 10:56:22;;;;;;;29.50;27.80;;;11.70;99.90;;;;;;12620612;28;20060;-36
2024/04/03 11:02:23;;;;;;;;;;;11.40;99.90;;;;;;12602205;28;20044;-36
2024/04/03 11:08:24;;;;;;;21.02;19.83;;;11.30;99.90;;;;;;12608970;28;19963;-36
2024/04/03 11:14:25;;;;;;;26.38;24.88;;;11.50;99.90;;;;;;12612439;28;20059;-36
2024/04/03 11:20:28;;;;;;;26.63;25.02;;;11.80;99.90;;;;;;12613326;28;20048;-36
2024/04/03 11:26:29;;;;;;;25.25;23.73;;;11.70;99.90;;;;;;12614633;28;20051;-36
2024/04/03 11:32:30;;;;;;;25.55;23.90;;;11.40;99.90;;;;;;12616506;28;20052;-36
2024/04/03 11:38:32;;;;;;;22.02;20.80;;;11.50;99.90;;;;;;12623631;28;20071;-36
2024/04/03 11:44:33;;;;;;;24.48;22.88;;;11.60;99.90;;;;;;12602016;28;20401;-36
2024/04/03 11:50:34;;;;;;;23.80;22.33;;;11.90;99.90;;;;;;12610973;28;20134;-36
2024/04/03 11:56:34;;;;;;;26.30;24.88;;;12.10;99.90;;;;;;12610207;28;20040;-36
2024/04/03 12:02:35;;;;;;;21.23;19.92;;;12.20;99.90;;;;;;12607932;28;20415;-36
2024/04/03 12:08:37;;;;;;;19.80;18.58;;;12.20;99.90;;;;;;12601834;28;20055;-36
2024/04/03 12:14:37;;;;;;;21.08;19.60;;;12.30;99.90;;;;;;12601673;28;20560;-36
2024/04/03 12:20:40;;;;;;;22.15;20.85;;;12.10;99.90;;;;;;12600276;28;20141;-36
2024/04/03 12:26:42;;;;;;;18.02;17.02;;;12.00;99.90;;;;;;12607851;28;20067;-36
2024/04/03 12:32:43;;;;;;;13.05;12.15;;;11.90;99.90;;;;;;12588713;28;20504;-36
2024/04/03 12:38:47;;;;;;;14.18;13.10;;;11.80;99.90;;;;;;12612960;28;20044;-36
2024/04/03 12:44:48;;;;;;;13.07;12.18;;;11.70;99.90;;;;;;12606826;28;20582;-36
2024/04/03 12:50:49;;;;;;;9.23;8.43;;;11.50;99.90;;;;;;12601695;28;20094;-36
2024/04/03 12:56:50;;;;;;;7.30;6.80;;;11.20;99.90;;;;;;12590762;28;20051;-36
2024/04/03 13:02:51;;;;;;;7.38;6.80;;;11.20;99.90;;;;;;12589096;28;20497;-36
2024/04/03 13:08:52;;;;;;;7.75;7.25;;;11.40;99.90;;;;;;12581381;28;20081;-36
2024/04/03 13:14:53;;;;;;;8.90;8.40;;;11.50;99.90;;;;;;12597726;28;20046;-36
2024/04/03 13:20:55;;;;;;;9.10;8.40;;;11.60;99.90;;;;;;12583320;28;20056;-36
2024/04/03 13:26:56;;;;;;;8.85;8.25;;;11.60;99.90;;;;;;12599978;28;20040;-37
2024/04/03 13:32:57;;;;;;;5.90;5.50;;;11.60;99.90;;;;;;12602247;28;20045;-36
2024/04/03 13:38:58;;;;;;;6.40;5.85;;;11.40;99.90;;;;;;12599582;28;20492;-37
2024/04/03 13:44:58;;;;;;;7.47;6.78;;;11.30;99.90;;;;;;12588281;28;20138;-36
2024/04/03 13:50:59;;;;;;;6.63;6.22;;;11.20;99.90;;;;;;12607050;28;20051;-36
2024/04/03 13:57:00;;;;;;;6.22;5.78;;;11.30;99.90;;;;;;12599145;28;20040;-36
2024/04/03 14:03:01;;;;;;;6.57;6.05;;;11.30;99.90;;;;;;12620687;28;20488;-36
2024/04/03 14:09:03;;;;;;;7.00;6.30;;;11.30;99.90;;;;;;12611306;28;20064;-36
2024/04/03 14:15:04;;;;;;;9.35;8.55;;;11.40;99.90;;;;;;12616922;28;20051;-36
2024/04/03 14:21:05;;;;;;;6.20;5.60;;;11.50;99.90;;;;;;12608990;28;20109;-36
2024/04/03 14:27:06;;;;;;;7.43;6.72;;;11.40;99.90;;;;;;12604426;28;20105;-36
2024/04/03 14:33:07;;;;;;;7.03;6.53;;;11.40;99.90;;;;;;12617025;28;20056;-36
2024/04/03 14:39:08;;;;;;;5.28;4.88;;;11.20;99.90;;;;;;12604410;28;20747;-35
2024/04/03 14:45:10;;;;;;;5.57;5.15;;;11.10;99.90;;;;;;12618947;28;20051;-36
2024/04/03 14:51:11;;;;;;;5.97;5.47;;;11.20;99.90;;;;;;12622620;28;20048;-36
2024/04/03 14:57:11;;;;;;;6.32;5.88;;;11.20;99.90;;;;;;12615690;28;20052;-36
2024/04/03 15:03:13;;;;;;;6.75;6.35;;;11.20;99.90;;;;;;12597529;28;20049;-35
2024/04/03 15:09:17;;;;;;;5.20;4.55;;;11.20;99.90;;;;;;12612948;28;20047;-36
2024/04/03 15:15:18;;;;;;;5.82;5.32;;;11.20;99.90;;;;;;12616481;28;20059;-36
2024/04/03 15:21:19;;;;;;;6.10;5.60;;;11.30;99.90;;;;;;12597979;28;21295;-36
2024/04/03 15:27:20;;;;;;;5.85;5.25;;;11.30;99.90;;;;;;12610927;28;20056;-35
2024/04/03 15:33:21;;;;;;;5.85;5.45;;;11.20;99.90;;;;;;12596567;28;20051;-36
2024/04/03 15:39:22;;;;;;;6.15;5.75;;;11.30;99.90;;;;;;12607237;28;20055;-36
2024/04/03 15:45:22;;;;;;;6.60;6.20;;;11.50;99.90;;;;;;12609893;28;20392;-36
2024/04/03 15:51:23;;;;;;;7.22;6.72;;;11.50;99.90;;;;;;12609078;28;20392;-36
2024/04/03 15:57:24;;;;;;;8.45;7.95;;;11.60;99.90;;;;;;12600366;28;20052;-36
2024/04/03 16:03:25;;;;;;;9.52;8.75;;;11.60;99.90;;;;;;12613481;28;20056;-36
2024/04/03 16:09:26;;;;;;;7.18;6.57;;;11.60;99.90;;;;;;12591355;28;20052;-36
2024/04/03 16:15:27;;;;;;;6.95;6.38;;;11.30;99.90;;;;;;12598045;28;20516;-35
2024/04/03 16:21:28;;;;;;;6.68;6.28;;;11.20;99.90;;;;;;12566510;28;1107738;-36
2024/04/03 16:27:28;;;;;;;6.20;5.80;;;11.10;99.90;;;;;;12588076;28;20104;-36
2024/04/03 16:33:31;;;;;;;5.70;5.30;;;11.00;99.90;;;;;;12591159;28;20496;-36
2024/04/03 16:39:32;;;;;;;5.03;4.72;;;10.90;99.90;;;;;;12589399;28;20412;-36
2024/04/03 16:45:34;;;;;;;5.80;5.40;;;10.80;99.90;;;;;;12578335;28;20044;-36
2024/04/03 16:51:35;;;;;;;4.80;4.50;;;10.80;99.90;;;;;;12588295;28;20052;-36
2024/04/03 16:57:35;;;;;;;4.57;4.07;;;10.80;99.90;;;;;;12586105;28;20052;-36
2024/04/03 17:03:37;;;;;;;4.88;4.30;;;10.80;99.90;;;;;;12585294;28;20052;-36
2024/04/03 17:09:38;;;;;;;3.97;3.67;;;10.70;99.90;;;;;;12605980;28;20067;-36
2024/04/03 17:15:39;;;;;;;4.85;4.40;;;10.60;99.90;;;;;;12574937;28;20075;-36
2024/04/03 17:21:43;;;;;;;4.60;4.20;;;10.60;99.90;;;;;;12601534;28;20141;-35
2024/04/03 17:27:46;;;;;;;5.22;4.72;;;10.60;99.90;;;;;;12601051;28;20060;-36
2024/04/03 17:33:48;;;;;;;5.05;4.65;;;10.50;99.90;;;;;;12604933;28;20052;-36
2024/04/03 17:39:51;;;;;;;4.72;4.32;;;10.40;99.90;;;;;;12614935;28;20056;-36
2024/04/03 17:45:51;;;;;;;4.88;4.47;;;10.30;99.90;;;;;;12593350;28;20397;-36
2024/04/03 17:51:53;;;;;;;4.60;4.30;;;10.30;99.90;;;;;;12594186;28;20131;-36
2024/04/03 17:57:53;;;;;;;4.13;3.83;;;10.20;99.90;;;;;;12611371;28;20484;-36
2024/04/03 18:03:54;;;;;;;5.50;4.40;;;10.20;99.90;;;;;;12602474;28;20044;-36
2024/04/03 18:09:55;;;;;;;4.53;4.03;;;10.20;99.90;;;;;;12591599;28;20048;-35
2024/04/03 18:15:57;;;;;;;4.80;4.28;;;10.10;99.90;;;;;;12615770;28;20051;-35
2024/04/03 18:21:58;;;;;;;4.93;4.13;;;10.10;99.90;;;;;;12611586;28;20053;-36
2024/04/03 18:27:59;;;;;;;5.72;5.15;;;10.00;99.90;;;;;;12612272;28;20136;-35
2024/04/03 18:34:00;;;;;;;4.07;3.75;;;10.00;99.90;;;;;;12583086;28;20037;-35
2024/04/03 18:40:04;;;;;;;5.40;3.50;;;10.10;99.90;;;;;;12613859;28;20052;-36
2024/04/03 18:46:05;;;;;;;;;;;10.10;99.90;;;;;;12600177;28;20056;-38
2024/04/03 18:52:07;;;;;;;4.75;3.70;;;10.20;99.90;;;;;;12596000;28;20555;-35
2024/04/03 18:58:07;;;;;;;5.63;3.60;;;10.20;99.90;;;;;;12584485;28;20458;-36
2024/04/03 19:04:11;;;;;;;4.00;3.70;;;10.30;99.90;;;;;;12608689;28;20112;-36
2024/04/03 19:10:12;;;;;;;3.90;3.60;;;10.40;99.90;;;;;;12607252;28;20055;-36
2024/04/03 19:16:13;;;;;;;4.35;4.05;;;10.60;99.90;;;;;;12615262;28;20047;-36
2024/04/03 19:22:14;;;;;;;4.78;4.30;;;10.60;99.90;;;;;;12607318;28;20137;-36
2024/04/03 19:28:14;;;;;;;4.97;4.00;;;10.60;99.90;;;;;;12602439;28;20056;-36
2024/04/03 19:34:15;;;;;;;5.35;4.93;;;10.60;99.90;;;;;;12581586;28;20053;-36
2024/04/03 19:40:16;;;;;;;5.50;5.10;;;10.60;99.90;;;;;;12585688;28;20097;-36
2024/04/03 19:46:17;;;;;;;5.30;4.90;;;10.60;99.90;;;;;;12584050;28;20184;-36
2024/04/03 19:52:18;;;;;;;5.35;4.95;;;10.70;99.90;;;;;;12619256;28;20059;-35
2024/04/03 19:58:20;;;;;;;5.32;5.00;;;10.80;99.90;;;;;;12592099;28;20077;-36
2024/04/03 20:04:21;;;;;;;5.53;4.97;;;10.80;99.90;;;;;;12603525;28;20059;-36
2024/04/03 20:10:46;;;;;;;5.78;5.38;;;10.80;99.90;;;;;;12584071;28;20067;-36
2024/04/03 20:16:47;;;;;;;6.03;5.53;;;10.80;99.90;;;;;;12599777;28;20070;-36
2024/04/03 20:22:48;;;;;;;5.07;4.78;;;10.80;99.90;;;;;;12600149;28;20094;-35
2024/04/03 20:28:49;;;;;;;5.05;4.60;;;11.00;99.90;;;;;;12607011;28;20048;-36
2024/04/03 20:34:54;;;;;;;5.38;4.97;;;11.10;99.90;;;;;;12606118;28;20471;-36
2024/04/03 20:40:57;;;;;;;6.55;6.05;;;11.20;99.90;;;;;;12596172;28;20101;-35
2024/04/03 20:47:00;;;;;;;7.63;5.38;;;11.10;99.90;;;;;;12605458;28;20076;-37
2024/04/03 20:53:03;;;;;;;7.03;6.43;;;11.20;99.90;;;;;;12593218;28;20049;-36
2024/04/03 20:59:04;;;;;;;6.97;6.47;;;11.20;99.90;;;;;;12607786;28;20048;-36
2024/04/03 21:05:09;;;;;;;7.80;7.20;;;11.20;99.90;;;;;;12589701;28;20080;-36
2024/04/03 21:11:11;;;;;;;7.35;6.80;;;11.10;99.90;;;;;;12598663;28;20056;-35
2024/04/03 21:17:12;;;;;;;5.47;4.85;;;11.20;99.90;;;;;;12582532;28;20713;-35
2024/04/03 21:23:13;;;;;;;3.83;3.50;;;11.20;99.90;;;;;;12598756;28;20051;-36
2024/04/03 21:29:14;;;;;;;5.03;2.80;;;11.40;99.90;;;;;;12601380;28;20044;-36
2024/04/03 21:35:15;;;;;;;4.53;3.70;;;11.40;99.90;;;;;;12596276;28;20117;-36
2024/04/03 21:41:16;;;;;;;4.60;3.97;;;11.20;99.90;;;;;;12604317;28;20089;-35
2024/04/03 21:47:17;;;;;;;4.97;3.20;;;11.10;99.90;;;;;;12603437;28;20607;-35
2024/04/03 21:53:18;;;;;;;14.25;4.47;;;11.00;99.90;;;;;;12602581;28;20548;-36
2024/04/03 21:59:19;;;;;;;8.10;3.30;;;11.00;99.90;;;;;;12596901;28;20460;-35
2024/04/03 22:05:19;;;;;;;6.60;2.47;;;10.90;99.90;;;;;;12596817;28;20095;-36
2024/04/03 22:11:21;;;;;;;5.95;3.13;;;10.90;99.90;;;;;;12600406;28;20159;-36
2024/04/03 22:17:21;;;;;;;4.20;3.80;;;10.90;99.90;;;;;;12597576;28;20047;-35
2024/04/03 22:23:22;;;;;;;4.75;3.90;;;10.90;99.90;;;;;;12608603;28;20269;-35
2024/04/03 22:29:23;;;;;;;6.45;3.40;;;10.80;99.90;;;;;;12610755;28;20068;-35
2024/04/03 22:35:24;;;;;;;6.13;4.90;;;10.90;99.90;;;;;;12616469;28;20048;-35
2024/04/03 22:41:25;;;;;;;6.50;2.63;;;10.80;99.90;;;;;;12610471;28;20079;-35
2024/04/03 22:47:26;;;;;;;5.68;2.00;;;10.80;99.90;;;;;;12595817;28;20056;-35
2024/04/03 22:53:26;;;;;;;9.60;3.30;;;11.00;99.90;;;;;;12617985;28;20508;-36
2024/04/03 22:59:27;;;;;;;6.30;4.40;;;10.90;99.90;;;;;;12609667;28;20439;-35
2024/04/03 23:05:28;;;;;;;5.95;4.07;;;10.80;99.90;;;;;;12607279;28;20082;-35
2024/04/03 23:11:29;;;;;;;5.07;3.88;;;10.70;99.90;;;;;;12590953;28;20056;-36
2024/04/03 23:17:30;;;;;;;5.32;4.22;;;10.60;99.90;;;;;;12603817;28;20079;-36
2024/04/03 23:23:31;;;;;;;5.05;3.90;;;10.60;99.90;;;;;;12608697;28;20060;-36
2024/04/03 23:29:32;;;;;;;6.07;3.40;;;10.50;99.90;;;;;;12605676;28;20113;-35
2024/04/03 23:35:33;;;;;;;5.88;3.30;;;10.50;99.90;;;;;;12612477;28;20480;-36
2024/04/03 23:41:34;;;;;;;8.05;3.53;;;10.70;99.90;;;;;;12599958;28;20048;-36
2024/04/03 23:47:34;;;;;;;6.25;3.58;;;10.70;99.90;;;;;;12608183;28;20059;-36
2024/04/03 23:53:36;;;;;;;5.57;3.35;;;10.60;99.90;;;;;;12583409;28;20048;-34
2024/04/03 23:59:37;;;;;;;6.82;3.70;;;10.60;99.90;;;;;;12604843;28;20097;-35
